createdAt,value
2023-04-27T00:02:08.184Z,69.44
2023-04-27T00:04:35.983Z,68.47
2023-04-27T00:07:03.831Z,69.03
2023-04-27T00:09:31.378Z,68.63
2023-04-27T00:11:58.901Z,68.78
2023-04-27T00:14:28.399Z,68.90
2023-04-27T00:16:57.255Z,69.12
2023-04-27T00:19:24.746Z,69.38
2023-04-27T00:21:52.324Z,69.29
2023-04-27T00:24:19.792Z,69.76
2023-04-27T00:26:47.262Z,70.54
2023-04-27T00:29:14.951Z,70.14
2023-04-27T00:31:42.767Z,70.42
2023-04-27T00:34:11.674Z,69.93
2023-04-27T00:36:39.882Z,69.65
2023-04-27T00:39:07.385Z,70.28
2023-04-27T00:41:38.103Z,70.55
2023-04-27T00:44:06.063Z,70.64
2023-04-27T00:46:34.314Z,70.35
2023-04-27T00:49:02.049Z,70.40
2023-04-27T00:51:32.118Z,70.29
2023-04-27T00:54:01.036Z,69.82
2023-04-27T00:56:28.536Z,70.09
2023-04-27T00:58:56.270Z,69.74
2023-04-27T01:01:24.510Z,69.78
2023-04-27T01:03:52.221Z,70.50
2023-04-27T01:06:19.942Z,70.44
2023-04-27T01:08:48.865Z,70.11
2023-04-27T01:11:16.424Z,70.33
2023-04-27T01:13:43.923Z,70.24
2023-04-27T01:16:11.508Z,70.39
2023-04-27T01:18:40.712Z,70.83
2023-04-27T01:21:08.356Z,70.35
2023-04-27T01:23:37.248Z,69.31
2023-04-27T01:26:04.796Z,69.84
2023-04-27T01:28:32.351Z,70.08
2023-04-27T01:31:01.304Z,70.22
2023-04-27T01:33:28.809Z,70.15
2023-04-27T01:35:56.301Z,70.02
2023-04-27T01:38:24.269Z,69.99
2023-04-27T01:40:55.154Z,69.83
2023-04-27T01:43:22.670Z,69.78
2023-04-27T01:45:50.179Z,70.31
2023-04-27T01:48:17.674Z,70.59
2023-04-27T01:50:45.258Z,70.99
2023-04-27T01:53:12.840Z,71.01
2023-04-27T01:55:40.510Z,70.98
2023-04-27T01:58:09.308Z,70.70
2023-04-27T02:00:36.861Z,70.75
2023-04-27T02:03:04.541Z,71.42
2023-04-27T02:05:32.137Z,71.23
2023-04-27T02:07:59.687Z,71.59
2023-04-27T02:10:27.231Z,70.81
2023-04-27T02:12:57.468Z,71.43
2023-04-27T02:15:26.541Z,71.42
2023-04-27T02:17:54.632Z,70.16
2023-04-27T02:20:22.931Z,70.70
2023-04-27T02:22:50.477Z,71.18
2023-04-27T02:25:18.316Z,70.96
2023-04-27T02:27:45.903Z,71.40
2023-04-27T02:30:15.331Z,72.33
2023-04-27T02:32:44.900Z,71.83
2023-04-27T02:35:12.483Z,72.38
2023-04-27T02:37:39.973Z,71.47
2023-04-27T02:40:09.544Z,72.19
2023-04-27T02:42:38.719Z,71.34
2023-04-27T02:45:08.117Z,71.63
2023-04-27T02:47:37.410Z,71.07
2023-04-27T02:50:07.485Z,71.12
2023-04-27T02:52:36.289Z,71.33
2023-04-27T02:55:03.985Z,71.11
2023-04-27T02:57:31.763Z,71.14
2023-04-27T03:00:00.787Z,70.85
2023-04-27T03:02:28.398Z,70.71
2023-04-27T03:04:56.184Z,71.21
2023-04-27T03:07:26.182Z,71.08
2023-04-27T03:09:53.735Z,70.75
2023-04-27T03:12:22.675Z,71.08
2023-04-27T03:14:50.157Z,71.19
2023-04-27T03:17:18.691Z,70.71
2023-04-27T03:19:48.992Z,70.54
2023-04-27T03:22:16.461Z,70.80
2023-04-27T03:24:45.330Z,70.96
2023-04-27T03:27:12.905Z,70.88
2023-04-27T03:29:40.398Z,70.68
2023-04-27T03:32:08.046Z,70.89
2023-04-27T03:34:35.636Z,70.69
2023-04-27T03:37:03.140Z,70.78
2023-04-27T03:39:30.777Z,70.15
2023-04-27T03:41:59.584Z,70.04
2023-04-27T03:44:27.170Z,70.42
2023-04-27T03:46:54.874Z,70.52
2023-04-27T03:49:22.982Z,70.58
2023-04-27T03:51:51.026Z,70.68
2023-04-27T03:54:18.573Z,70.90
2023-04-27T03:56:46.784Z,71.16
2023-04-27T03:59:16.153Z,70.90
2023-04-27T04:01:49.812Z,70.32
2023-04-27T04:04:17.447Z,70.48
2023-04-27T04:06:45.200Z,70.98
2023-04-27T04:09:13.623Z,70.57
2023-04-27T04:11:41.493Z,71.28
2023-04-27T04:14:12.280Z,71.24
2023-04-27T04:16:42.472Z,70.78
2023-04-27T04:19:10.024Z,70.93
2023-04-27T04:21:37.940Z,70.95
2023-04-27T04:24:05.906Z,70.38
2023-04-27T04:26:34.202Z,70.36
2023-04-27T04:29:02.006Z,70.67
2023-04-27T04:31:29.804Z,71.44
2023-04-27T04:33:58.725Z,70.86
2023-04-27T04:36:26.580Z,70.79
2023-04-27T04:38:57.215Z,70.63
2023-04-27T04:41:26.348Z,70.47
2023-04-27T04:43:54.493Z,70.63
2023-04-27T04:46:22.352Z,70.82
2023-04-27T04:48:52.724Z,70.91
2023-04-27T04:51:23.635Z,70.53
2023-04-27T04:53:51.121Z,70.46
2023-04-27T04:56:18.665Z,70.87
2023-04-27T04:58:46.313Z,70.99
2023-04-27T05:01:13.816Z,71.07
2023-04-27T05:03:42.684Z,70.76
2023-04-27T05:06:10.286Z,70.84
2023-04-27T05:08:39.185Z,71.14
2023-04-27T05:11:06.666Z,70.75
2023-04-27T05:13:35.533Z,71.25
2023-04-27T05:16:05.107Z,70.83
2023-04-27T05:18:32.693Z,70.27
2023-04-27T05:21:00.411Z,69.87
2023-04-27T05:23:27.980Z,69.54
2023-04-27T05:25:56.859Z,69.35
2023-04-27T05:28:24.338Z,69.43
2023-04-27T05:30:51.851Z,69.63
2023-04-27T05:33:19.366Z,69.97
2023-04-27T05:35:46.860Z,69.32
2023-04-27T05:38:17.412Z,69.80
2023-04-27T05:40:44.987Z,69.32
2023-04-27T05:43:13.780Z,69.15
2023-04-27T05:45:41.813Z,69.12
2023-04-27T05:48:09.348Z,68.67
2023-04-27T05:50:36.849Z,68.45
2023-04-27T05:53:05.631Z,68.68
2023-04-27T05:55:33.092Z,68.27
2023-04-27T05:58:08.536Z,67.04
2023-04-27T06:00:38.327Z,67.12
2023-04-27T06:03:07.234Z,67.58
2023-04-27T06:05:35.307Z,67.96
2023-04-27T06:08:03.084Z,67.39
2023-04-27T06:10:30.714Z,67.17
2023-04-27T06:12:58.223Z,66.61
2023-04-27T06:15:25.931Z,66.68
2023-04-27T06:17:54.827Z,66.38
2023-04-27T06:20:22.919Z,66.19
2023-04-27T06:22:50.581Z,64.95
2023-04-27T06:25:18.094Z,64.59
2023-04-27T06:27:45.667Z,63.70
2023-04-27T06:30:13.917Z,63.94
2023-04-27T06:32:41.464Z,63.24
2023-04-27T06:35:11.044Z,63.61
2023-04-27T06:37:39.061Z,63.54
2023-04-27T06:40:08.041Z,61.62
2023-04-27T06:42:35.738Z,61.18
2023-04-27T06:45:04.554Z,61.25
2023-04-27T06:47:32.071Z,61.10
2023-04-27T06:49:59.850Z,60.02
2023-04-27T06:52:28.780Z,59.74
2023-04-27T06:54:56.265Z,59.70
2023-04-27T06:57:23.746Z,57.85
2023-04-27T06:59:52.305Z,56.71
2023-04-27T07:02:19.924Z,57.06
2023-04-27T07:04:47.847Z,56.62
2023-04-27T07:07:15.398Z,55.50
2023-04-27T07:09:44.405Z,52.85
2023-04-27T07:12:11.948Z,53.06
2023-04-27T07:14:39.445Z,53.77
2023-04-27T07:17:06.984Z,52.08
2023-04-27T07:19:34.459Z,48.59
2023-04-27T07:22:01.943Z,44.60
2023-04-27T07:24:29.403Z,43.94
2023-04-27T07:26:59.393Z,45.89
2023-04-27T07:29:28.302Z,44.19
2023-04-27T07:31:57.353Z,43.35
2023-04-27T07:34:24.925Z,41.73
2023-04-27T07:36:54.195Z,40.58
2023-04-27T07:39:22.310Z,40.76
2023-04-27T07:41:49.897Z,41.30
2023-04-27T07:44:19.429Z,40.59
2023-04-27T07:46:48.927Z,41.70
2023-04-27T07:49:16.741Z,41.93
2023-04-27T07:51:44.372Z,42.75
2023-04-27T07:54:11.954Z,41.94
2023-04-27T07:56:41.592Z,40.48
2023-04-27T07:59:09.108Z,40.72
2023-04-27T08:01:37.982Z,40.18
2023-04-27T08:04:08.786Z,40.41
2023-04-27T08:06:37.036Z,41.27
2023-04-27T08:09:05.198Z,40.81
2023-04-27T08:11:32.902Z,40.02
2023-04-27T08:14:01.451Z,40.54
2023-04-27T08:16:28.992Z,40.64
2023-04-27T08:18:59.269Z,40.76
2023-04-27T08:21:28.532Z,39.96
2023-04-27T08:23:56.525Z,39.84
2023-04-27T08:26:26.276Z,39.64
2023-04-27T08:28:53.980Z,40.20
2023-04-27T08:31:22.117Z,39.82
2023-04-27T08:33:49.721Z,39.64
2023-04-27T08:36:18.559Z,39.47
2023-04-27T08:38:46.488Z,39.13
2023-04-27T08:41:21.962Z,39.41
2023-04-27T08:43:50.814Z,38.66
2023-04-27T08:46:21.938Z,38.50
2023-04-27T08:48:51.115Z,38.65
2023-04-27T08:51:20.864Z,39.34
2023-04-27T08:53:50.371Z,39.47
2023-04-27T08:56:18.123Z,38.84
2023-04-27T08:58:45.963Z,38.50
2023-04-27T09:01:13.537Z,38.59
2023-04-27T09:03:41.236Z,38.70
2023-04-27T09:06:09.600Z,38.91
2023-04-27T09:08:45.816Z,38.39
2023-04-27T09:11:13.464Z,38.58
2023-04-27T09:13:44.995Z,39.07
2023-04-27T09:16:13.963Z,38.73
2023-04-27T09:18:43.621Z,37.87
2023-04-27T09:21:11.248Z,37.48
2023-04-27T09:23:40.639Z,37.36
2023-04-27T09:26:09.513Z,37.80
2023-04-27T09:28:39.670Z,37.66
2023-04-27T09:31:09.135Z,37.71
2023-04-27T09:33:37.049Z,37.79
2023-04-27T09:36:06.535Z,36.94
2023-04-27T09:38:34.836Z,36.15
2023-04-27T09:41:02.822Z,36.06
2023-04-27T09:43:31.804Z,36.26
2023-04-27T09:45:59.499Z,35.20
2023-04-27T09:48:27.553Z,35.31
2023-04-27T09:50:55.120Z,35.50
2023-04-27T09:53:27.623Z,35.68
2023-04-27T09:56:04.186Z,35.50
2023-04-27T09:58:46.298Z,35.18
2023-04-27T10:01:19.645Z,34.73
2023-04-27T10:03:56.686Z,34.41
2023-04-27T10:06:58.125Z,34.94
2023-04-27T10:09:26.473Z,33.85
2023-04-27T10:11:55.256Z,33.06
2023-04-27T10:14:26.046Z,34.03
2023-04-27T10:16:55.641Z,34.47
2023-04-27T10:19:24.386Z,33.55
2023-04-27T10:21:57.914Z,33.25
2023-04-27T10:24:37.926Z,33.38
2023-04-27T10:27:06.909Z,32.65
2023-04-27T10:29:40.241Z,32.21
2023-04-27T10:32:08.934Z,32.18
2023-04-27T10:34:37.396Z,33.38
2023-04-27T10:37:09.186Z,33.43
2023-04-27T10:39:47.550Z,34.00
2023-04-27T10:42:16.052Z,33.04
2023-04-27T10:44:55.869Z,33.42
2023-04-27T10:47:24.346Z,33.51
2023-04-27T10:49:53.679Z,33.22
2023-04-27T10:52:21.134Z,32.82
2023-04-27T10:54:48.800Z,32.91
2023-04-27T10:57:16.424Z,32.70
2023-04-27T10:59:52.838Z,33.49
2023-04-27T11:02:27.483Z,33.06
2023-04-27T11:04:55.410Z,33.65
2023-04-27T11:07:27.683Z,33.53
2023-04-27T11:09:55.358Z,32.93
2023-04-27T11:12:24.087Z,33.70
2023-04-27T11:14:58.400Z,33.46
2023-04-27T11:17:30.069Z,33.09
2023-04-27T11:19:57.630Z,32.58
2023-04-27T11:22:25.534Z,32.36
2023-04-27T11:24:53.668Z,31.89
2023-04-27T11:27:22.290Z,32.78
2023-04-27T11:29:49.941Z,32.69
2023-04-27T11:32:22.565Z,33.00
2023-04-27T11:34:50.787Z,33.51
2023-04-27T11:37:23.745Z,33.72
2023-04-27T11:39:51.687Z,34.56
2023-04-27T11:42:21.891Z,34.06
2023-04-27T11:44:56.616Z,33.96
2023-04-27T11:47:27.698Z,32.86
2023-04-27T11:49:56.542Z,32.07
2023-04-27T11:52:24.380Z,31.75
2023-04-27T11:54:53.440Z,32.11
2023-04-27T11:57:26.117Z,32.93
2023-04-27T11:59:53.781Z,32.38
2023-04-27T12:02:22.037Z,31.61
2023-04-27T12:04:51.603Z,31.17
2023-04-27T12:07:19.718Z,31.14
2023-04-27T12:09:47.600Z,32.25
2023-04-27T12:12:18.174Z,32.70
2023-04-27T12:14:45.872Z,32.26
2023-04-27T12:17:13.666Z,32.92
2023-04-27T12:19:41.229Z,32.99
2023-04-27T12:22:10.158Z,33.36
2023-04-27T12:24:38.042Z,33.62
2023-04-27T12:27:05.622Z,32.37
2023-04-27T12:29:33.259Z,32.37
2023-04-27T12:32:01.073Z,32.49
2023-04-27T12:34:29.218Z,31.78
2023-04-27T12:36:56.916Z,32.94
2023-04-27T12:39:25.870Z,33.22
2023-04-27T12:41:54.100Z,32.82
2023-04-27T12:44:22.647Z,33.31
2023-04-27T12:46:50.629Z,33.31
2023-04-27T12:49:18.642Z,33.24
2023-04-27T12:51:47.796Z,33.87
2023-04-27T12:54:15.700Z,32.91
2023-04-27T12:56:45.008Z,33.32
2023-04-27T12:59:12.612Z,33.04
2023-04-27T13:01:40.288Z,33.20
2023-04-27T13:04:09.168Z,32.74
2023-04-27T13:06:36.911Z,32.86
2023-04-27T13:09:05.389Z,33.24
2023-04-27T13:11:32.984Z,33.05
2023-04-27T13:14:01.993Z,33.29
2023-04-27T13:16:29.689Z,33.34
2023-04-27T13:18:57.258Z,33.82
2023-04-27T13:21:24.897Z,34.67
2023-04-27T13:23:54.821Z,34.28
2023-04-27T13:26:22.473Z,34.31
2023-04-27T13:28:50.998Z,34.28
2023-04-27T13:31:19.980Z,34.32
2023-04-27T13:33:47.485Z,34.17
2023-04-27T13:36:15.106Z,33.79
2023-04-27T13:38:42.726Z,33.87
2023-04-27T13:41:10.309Z,33.93
2023-04-27T13:43:37.915Z,33.45
2023-04-27T13:46:05.616Z,33.56
2023-04-27T13:48:34.453Z,33.55
2023-04-27T13:51:02.256Z,33.65
2023-04-27T13:53:29.847Z,33.60
2023-04-27T13:55:58.180Z,33.86
2023-04-27T13:58:26.401Z,34.17
2023-04-27T14:00:54.613Z,33.83
2023-04-27T14:03:22.801Z,33.78
2023-04-27T14:05:52.087Z,34.13
2023-04-27T14:08:19.760Z,34.23
2023-04-27T14:10:47.586Z,34.45
2023-04-27T14:13:15.091Z,34.13
2023-04-27T14:15:42.639Z,34.40
2023-04-27T14:18:10.710Z,34.34
2023-04-27T14:20:40.217Z,34.62
2023-04-27T14:23:09.744Z,34.67
2023-04-27T14:25:38.645Z,35.22
2023-04-27T14:28:07.039Z,35.10
2023-04-27T14:30:35.364Z,35.02
2023-04-27T14:33:03.278Z,35.25
2023-04-27T14:35:31.103Z,35.69
2023-04-27T14:38:02.238Z,35.38
2023-04-27T14:40:31.544Z,36.28
2023-04-27T14:42:59.682Z,36.61
2023-04-27T14:45:33.442Z,36.42
2023-04-27T14:48:04.676Z,36.55
2023-04-27T14:50:32.677Z,36.62
2023-04-27T14:53:00.151Z,36.71
2023-04-27T14:55:27.644Z,36.82
2023-04-27T14:57:56.466Z,36.49
2023-04-27T15:00:24.023Z,36.01
2023-04-27T15:02:51.676Z,36.59
2023-04-27T15:05:19.233Z,36.96
2023-04-27T15:07:46.966Z,36.59
2023-04-27T15:10:14.439Z,37.53
2023-04-27T15:12:41.911Z,36.63
2023-04-27T15:15:12.776Z,36.66
2023-04-27T15:17:40.386Z,36.73
2023-04-27T15:20:08.957Z,37.12
2023-04-27T15:22:36.462Z,37.81
2023-04-27T15:25:04.199Z,37.84
2023-04-27T15:27:32.666Z,37.89
2023-04-27T15:30:03.792Z,37.84
2023-04-27T15:32:33.239Z,37.95
2023-04-27T15:35:01.257Z,37.83
2023-04-27T15:37:29.727Z,37.63
2023-04-27T15:39:57.648Z,37.74
2023-04-27T15:42:25.330Z,37.79
2023-04-27T15:44:52.823Z,38.45
2023-04-27T15:47:20.323Z,38.10
2023-04-27T15:49:57.011Z,38.56
2023-04-27T15:52:27.045Z,38.62
2023-04-27T15:54:55.887Z,38.56
2023-04-27T15:57:23.357Z,38.89
2023-04-27T15:59:50.856Z,39.10
2023-04-27T16:02:18.752Z,39.03
2023-04-27T16:04:46.307Z,38.91
2023-04-27T16:07:15.147Z,38.79
2023-04-27T16:09:43.370Z,38.61
2023-04-27T16:12:10.885Z,38.97
2023-04-27T16:14:38.874Z,39.39
2023-04-27T16:17:06.708Z,39.23
2023-04-27T16:19:34.176Z,39.27
2023-04-27T16:22:04.034Z,38.70
2023-04-27T16:24:32.903Z,38.68
2023-04-27T16:27:00.428Z,38.84
2023-04-27T16:29:27.923Z,38.49
2023-04-27T16:31:55.444Z,38.33
2023-04-27T16:34:22.963Z,38.32
2023-04-27T16:36:50.797Z,38.41
2023-04-27T16:39:19.192Z,38.59
2023-04-27T16:41:48.552Z,39.19
2023-04-27T16:44:16.573Z,39.61
2023-04-27T16:46:44.127Z,39.79
2023-04-27T16:49:11.797Z,40.06
2023-04-27T16:51:39.386Z,40.33
2023-04-27T16:54:06.917Z,40.35
2023-04-27T16:56:36.079Z,40.71
2023-04-27T16:59:05.198Z,41.00
2023-04-27T17:01:32.989Z,41.32
2023-04-27T17:04:02.301Z,41.50
2023-04-27T17:06:30.051Z,41.33
2023-04-27T17:08:58.233Z,41.83
2023-04-27T17:11:26.376Z,41.88
2023-04-27T17:13:53.920Z,42.69
2023-04-27T17:16:23.369Z,43.21
2023-04-27T17:18:51.055Z,43.12
2023-04-27T17:21:19.337Z,43.66
2023-04-27T17:23:47.476Z,43.47
2023-04-27T17:26:15.965Z,43.62
2023-04-27T17:28:43.477Z,43.53
2023-04-27T17:31:11.031Z,44.13
2023-04-27T17:33:40.102Z,44.03
2023-04-27T17:36:07.955Z,44.22
2023-04-27T17:38:35.513Z,44.54
2023-04-27T17:41:03.001Z,44.55
2023-04-27T17:43:30.778Z,44.73
2023-04-27T17:45:58.262Z,44.99
2023-04-27T17:48:25.778Z,45.04
2023-04-27T17:50:54.647Z,45.49
2023-04-27T17:53:22.179Z,45.19
2023-04-27T17:55:49.688Z,45.05
2023-04-27T17:58:17.192Z,45.37
2023-04-27T18:00:45.211Z,45.68
2023-04-27T18:03:13.242Z,45.70
2023-04-27T18:05:41.020Z,46.11
2023-04-27T18:08:09.967Z,46.52
2023-04-27T18:10:37.445Z,46.48
2023-04-27T18:13:04.939Z,46.63
2023-04-27T18:15:32.474Z,46.91
2023-04-27T18:18:00.107Z,47.16
2023-04-27T18:20:28.067Z,47.06
2023-04-27T18:22:55.694Z,47.04
2023-04-27T18:25:24.625Z,47.74
2023-04-27T18:27:55.324Z,47.51
2023-04-27T18:30:23.490Z,47.69
2023-04-27T18:32:51.005Z,47.74
2023-04-27T18:35:18.614Z,48.04
2023-04-27T18:37:48.304Z,47.88
2023-04-27T18:40:17.168Z,47.94
2023-04-27T18:42:45.959Z,48.12
2023-04-27T18:45:13.513Z,48.34
2023-04-27T18:47:41.028Z,48.25
2023-04-27T18:50:09.532Z,48.16
2023-04-27T18:52:37.016Z,48.68
2023-04-27T18:55:05.362Z,48.93
2023-04-27T18:57:33.060Z,49.03
2023-04-27T19:00:01.969Z,48.88
2023-04-27T19:02:29.724Z,48.90
2023-04-27T19:05:11.134Z,48.91
2023-04-27T19:07:40.313Z,48.95
2023-04-27T19:10:08.934Z,49.01
2023-04-27T19:12:36.501Z,49.26
2023-04-27T19:15:06.181Z,49.67
2023-04-27T19:17:34.135Z,49.64
2023-04-27T19:20:01.768Z,49.49
2023-04-27T19:22:34.088Z,49.54
2023-04-27T19:25:01.792Z,50.11
2023-04-27T19:27:29.377Z,49.98
2023-04-27T19:29:58.638Z,50.49
2023-04-27T19:32:28.336Z,50.03
2023-04-27T19:34:56.819Z,50.33
2023-04-27T19:37:24.675Z,50.38
2023-04-27T19:39:52.200Z,50.29
2023-04-27T19:42:19.705Z,50.60
2023-04-27T19:44:47.297Z,50.73
2023-04-27T19:47:14.820Z,50.57
2023-04-27T19:49:43.662Z,50.66
2023-04-27T19:52:11.247Z,50.95
2023-04-27T19:54:38.937Z,50.63
2023-04-27T19:57:06.598Z,51.77
2023-04-27T19:59:34.180Z,51.98
2023-04-27T20:02:01.853Z,51.83
2023-04-27T20:04:29.760Z,51.85
2023-04-27T20:06:58.716Z,51.94
2023-04-27T20:09:26.306Z,51.49
2023-04-27T20:11:54.903Z,51.56
2023-04-27T20:14:22.431Z,51.93
2023-04-27T20:16:50.019Z,51.79
2023-04-27T20:19:19.269Z,51.91
2023-04-27T20:21:46.906Z,52.42
2023-04-27T20:24:16.313Z,52.26
2023-04-27T20:26:44.150Z,51.91
2023-04-27T20:29:11.696Z,51.96
2023-04-27T20:31:39.232Z,52.04
2023-04-27T20:34:06.738Z,52.28
2023-04-27T20:36:34.234Z,52.82
2023-04-27T20:39:05.383Z,52.66
2023-04-27T20:41:34.644Z,52.32
2023-04-27T20:44:02.314Z,52.45
2023-04-27T20:46:30.567Z,52.47
2023-04-27T20:48:58.089Z,52.34
2023-04-27T20:51:26.252Z,52.57
2023-04-27T20:53:53.769Z,52.54
2023-04-27T20:56:21.227Z,52.57
2023-04-27T20:58:50.044Z,52.79
2023-04-27T21:01:17.868Z,52.74
2023-04-27T21:03:45.952Z,52.73
2023-04-27T21:06:13.597Z,52.78
2023-04-27T21:08:41.818Z,52.78
2023-04-27T21:11:09.376Z,53.11
2023-04-27T21:13:37.087Z,53.20
2023-04-27T21:16:06.568Z,52.86
2023-04-27T21:18:34.106Z,53.25
2023-04-27T21:21:01.648Z,52.98
2023-04-27T21:23:29.267Z,53.19
2023-04-27T21:25:56.789Z,52.99
2023-04-27T21:28:24.258Z,53.51
2023-04-27T21:30:51.792Z,53.55
2023-04-27T21:33:20.590Z,54.31
2023-04-27T21:35:48.092Z,53.87
2023-04-27T21:38:15.640Z,54.24
2023-04-27T21:40:43.186Z,53.83
2023-04-27T21:43:10.673Z,54.53
2023-04-27T21:45:38.195Z,54.85
2023-04-27T21:48:06.166Z,54.91
2023-04-27T21:50:35.118Z,55.14
2023-04-27T21:53:02.576Z,55.24
2023-04-27T21:55:30.062Z,56.09
2023-04-27T21:57:57.578Z,56.71
2023-04-27T22:00:25.551Z,57.08
2023-04-27T22:02:53.213Z,57.77
2023-04-27T22:05:21.512Z,58.26
2023-04-27T22:07:51.430Z,57.28
2023-04-27T22:10:18.985Z,57.12
2023-04-27T22:12:46.888Z,57.84
2023-04-27T22:15:14.376Z,56.69
2023-04-27T22:17:41.886Z,57.20
2023-04-27T22:20:12.626Z,57.71
2023-04-27T22:22:40.137Z,59.36
2023-04-27T22:25:10.030Z,59.93
2023-04-27T22:27:44.839Z,60.95
2023-04-27T22:30:14.366Z,61.56
2023-04-27T22:32:42.363Z,61.00
2023-04-27T22:35:24.690Z,61.47
2023-04-27T22:37:53.645Z,60.57
2023-04-27T22:40:22.657Z,60.35
2023-04-27T22:42:50.139Z,61.19
2023-04-27T22:45:18.041Z,60.96
2023-04-27T22:47:46.006Z,60.74
2023-04-27T22:50:14.061Z,60.98
2023-04-27T22:52:43.038Z,60.68
2023-04-27T22:55:11.044Z,60.93
2023-04-27T22:57:40.115Z,60.50
2023-04-27T23:00:11.309Z,61.17
2023-04-27T23:02:39.531Z,61.99
2023-04-27T23:05:08.004Z,60.49
2023-04-27T23:07:36.013Z,60.56
2023-04-27T23:10:04.587Z,61.35
2023-04-27T23:12:32.557Z,61.47
2023-04-27T23:15:01.374Z,61.39
2023-04-27T23:17:31.181Z,62.04
2023-04-27T23:19:59.197Z,62.03
2023-04-27T23:22:27.462Z,62.19
2023-04-27T23:24:55.371Z,62.61
2023-04-27T23:27:24.618Z,61.99
2023-04-27T23:29:52.618Z,62.81
2023-04-27T23:32:21.698Z,62.61
2023-04-27T23:34:49.395Z,62.18
2023-04-27T23:37:17.173Z,63.73
2023-04-27T23:39:44.656Z,64.26
2023-04-27T23:42:12.150Z,63.92
2023-04-27T23:44:39.658Z,63.22
2023-04-27T23:47:07.283Z,62.40
2023-04-27T23:49:36.339Z,63.80
2023-04-27T23:52:03.819Z,62.46
2023-04-27T23:54:31.545Z,64.60
2023-04-27T23:56:59.045Z,66.59
2023-04-27T23:59:26.553Z,65.56
